createdAt,value
2018-06-05T00:01:45.875Z,99.90
2018-06-05T00:04:13.708Z,99.90
2018-06-05T00:06:41.528Z,99.90
2018-06-05T00:09:09.436Z,99.90
2018-06-05T00:11:37.288Z,99.90
2018-06-05T00:14:05.176Z,99.90
2018-06-05T00:16:32.977Z,99.90
2018-06-05T00:21:29.456Z,99.90
2018-06-05T00:23:57.322Z,99.90
2018-06-05T00:26:25.116Z,99.90
2018-06-05T00:28:53.067Z,99.90
2018-06-05T00:31:21.259Z,99.90
2018-06-05T00:33:49.131Z,99.90
2018-06-05T00:36:16.940Z,99.90
2018-06-05T00:38:45.001Z,99.90
2018-06-05T00:43:40.598Z,99.90
2018-06-05T00:46:08.524Z,99.90
2018-06-05T00:48:36.316Z,99.90
2018-06-05T00:51:14.309Z,99.90
2018-06-05T00:53:42.269Z,99.90
2018-06-05T00:56:10.138Z,99.90
2018-06-05T00:58:37.980Z,99.90
2018-06-05T01:01:05.785Z,99.90
2018-06-05T01:03:33.588Z,99.90
2018-06-05T01:06:01.374Z,99.90
2018-06-05T01:08:29.266Z,99.90
2018-06-05T01:10:57.041Z,99.90
2018-06-05T01:13:24.820Z,99.90
2018-06-05T01:15:52.599Z,99.90
2018-06-05T01:18:20.400Z,99.90
2018-06-05T01:20:49.217Z,99.90
2018-06-05T01:23:17.028Z,99.90
2018-06-05T01:25:44.817Z,99.90
2018-06-05T01:28:12.660Z,99.90
2018-06-05T01:30:40.488Z,99.90
2018-06-05T01:33:08.318Z,99.90
2018-06-05T01:35:36.150Z,99.90
2018-06-05T01:38:04.031Z,99.90
2018-06-05T01:40:31.918Z,99.90
2018-06-05T01:42:59.738Z,99.90
2018-06-05T01:45:27.582Z,99.90
2018-06-05T01:47:55.996Z,99.90
2018-06-05T01:50:23.809Z,99.90
2018-06-05T01:52:51.612Z,99.90
2018-06-05T01:55:19.440Z,99.90
2018-06-05T01:57:47.240Z,99.90
2018-06-05T02:00:15.056Z,99.90
2018-06-05T02:05:10.548Z,99.90
2018-06-05T02:07:38.382Z,99.90
2018-06-05T02:10:06.191Z,99.90
2018-06-05T02:12:34.046Z,99.90
2018-06-05T02:17:29.653Z,99.90
2018-06-05T02:19:57.470Z,99.90
2018-06-05T02:22:25.282Z,99.90
2018-06-05T02:24:53.052Z,99.90
2018-06-05T02:27:20.840Z,99.90
2018-06-05T02:29:48.621Z,99.90
2018-06-05T02:32:16.409Z,99.90
2018-06-05T02:34:44.206Z,99.90
2018-06-05T02:37:12.038Z,99.90
2018-06-05T02:42:14.232Z,99.90
2018-06-05T02:44:42.052Z,99.90
2018-06-05T02:47:09.849Z,99.90
2018-06-05T02:52:05.312Z,99.90
2018-06-05T02:54:33.132Z,99.90
2018-06-05T02:57:00.924Z,99.90
2018-06-05T03:04:24.126Z,99.90
2018-06-05T03:06:51.939Z,99.90
2018-06-05T03:09:19.767Z,99.90
2018-06-05T03:11:47.607Z,99.90
2018-06-05T03:14:15.443Z,99.90
2018-06-05T03:16:43.212Z,99.90
2018-06-05T03:19:11.029Z,99.90
2018-06-05T03:21:38.800Z,99.90
2018-06-05T03:24:06.651Z,99.90
2018-06-05T03:26:34.450Z,99.90
2018-06-05T03:29:02.285Z,99.90
2018-06-05T03:31:30.085Z,99.90
2018-06-05T03:33:57.845Z,99.90
2018-06-05T03:36:25.663Z,99.90
2018-06-05T03:38:53.469Z,99.90
2018-06-05T03:41:21.261Z,99.90
2018-06-05T03:43:49.131Z,99.90
2018-06-05T03:46:16.962Z,99.90
2018-06-05T03:48:44.796Z,99.90
2018-06-05T03:51:12.590Z,99.90
2018-06-05T03:53:40.355Z,99.90
2018-06-05T03:56:08.161Z,99.90
2018-06-05T03:58:35.924Z,99.90
2018-06-05T04:01:03.685Z,99.90
2018-06-05T04:03:31.520Z,99.90
2018-06-05T04:05:59.360Z,99.90
2018-06-05T04:08:27.182Z,99.90
2018-06-05T04:10:54.955Z,99.90
2018-06-05T04:13:22.779Z,99.90
2018-06-05T04:15:50.648Z,99.90
2018-06-05T04:18:18.443Z,99.90
2018-06-05T04:20:46.204Z,99.90
2018-06-05T04:23:13.979Z,99.90
2018-06-05T04:25:41.761Z,99.90
2018-06-05T04:28:09.554Z,99.90
2018-06-05T04:30:37.312Z,99.90
2018-06-05T04:38:00.332Z,99.90
2018-06-05T04:40:28.132Z,99.40
2018-06-05T04:42:55.861Z,99.90
2018-06-05T04:45:23.658Z,99.90
2018-06-05T04:47:51.468Z,99.90
2018-06-05T04:50:19.176Z,99.90
2018-06-05T04:52:47.012Z,99.90
2018-06-05T04:55:14.788Z,99.90
2018-06-05T04:57:42.618Z,99.90
2018-06-05T05:00:10.404Z,99.90
2018-06-05T05:02:38.174Z,99.90
2018-06-05T05:05:06.047Z,99.90
2018-06-05T05:07:33.840Z,98.90
2018-06-05T05:10:01.639Z,98.80
2018-06-05T05:12:29.415Z,99.60
2018-06-05T05:14:57.209Z,99.90
2018-06-05T05:17:25.007Z,99.60
2018-06-05T05:19:52.820Z,98.10
2018-06-05T05:22:20.677Z,98.60
2018-06-05T05:24:48.520Z,97.70
2018-06-05T05:27:16.304Z,97.10
2018-06-05T05:29:44.119Z,96.10
2018-06-05T05:32:11.903Z,97.00
2018-06-05T05:34:39.731Z,95.70
2018-06-05T05:37:08.344Z,95.80
2018-06-05T05:39:36.150Z,95.50
2018-06-05T05:44:31.678Z,96.70
2018-06-05T05:46:59.515Z,96.50
2018-06-05T05:49:27.314Z,96.50
2018-06-05T05:51:55.179Z,96.30
2018-06-05T05:59:18.356Z,93.70
2018-06-05T06:01:46.129Z,93.80
2018-06-05T06:06:41.596Z,93.50
2018-06-05T06:09:09.373Z,91.80
2018-06-05T06:11:37.225Z,90.70
2018-06-05T06:14:05.206Z,91.70
2018-06-05T06:16:32.976Z,92.50
2018-06-05T06:19:00.763Z,92.40
2018-06-05T06:21:28.562Z,93.30
2018-06-05T06:23:56.392Z,92.80
2018-06-05T06:26:24.160Z,92.40
2018-06-05T06:28:51.980Z,92.70
2018-06-05T06:31:19.841Z,91.30
2018-06-05T06:33:48.712Z,91.20
2018-06-05T06:38:44.172Z,92.70
2018-06-05T06:41:12.044Z,92.50
2018-06-05T06:43:39.861Z,91.70
2018-06-05T06:46:07.672Z,89.30
2018-06-05T06:48:35.688Z,90.00
2018-06-05T06:51:04.556Z,88.50
2018-06-05T06:53:32.373Z,88.00
2018-06-05T06:56:00.172Z,88.40
2018-06-05T06:58:27.999Z,90.80
2018-06-05T07:00:55.796Z,92.30
2018-06-05T07:03:23.595Z,91.30
2018-06-05T07:05:51.359Z,89.80
2018-06-05T07:08:19.160Z,85.00
2018-06-05T07:10:47.075Z,81.30
2018-06-05T07:13:14.892Z,81.70
2018-06-05T07:15:42.759Z,79.50
2018-06-05T07:18:10.585Z,77.80
2018-06-05T07:20:38.424Z,76.60
2018-06-05T07:23:06.199Z,81.20
2018-06-05T07:25:34.023Z,80.40
2018-06-05T07:30:29.523Z,78.10
2018-06-05T07:32:57.277Z,78.60
2018-06-05T07:35:25.048Z,78.80
2018-06-05T07:37:52.881Z,78.70
2018-06-05T07:40:20.740Z,76.90
2018-06-05T07:42:48.555Z,75.60
2018-06-05T07:45:16.380Z,76.10
2018-06-05T07:47:44.182Z,74.60
2018-06-05T07:50:11.966Z,76.70
2018-06-05T07:57:35.203Z,82.30
2018-06-05T08:00:03.649Z,79.90
2018-06-05T08:04:59.282Z,75.70
2018-06-05T08:09:54.770Z,75.10
2018-06-05T08:12:22.570Z,75.80
2018-06-05T08:17:18.047Z,71.70
2018-06-05T08:19:45.904Z,70.50
2018-06-05T08:22:13.733Z,68.70
2018-06-05T08:27:09.208Z,71.10
2018-06-05T08:29:37.939Z,72.30
2018-06-05T08:34:37.955Z,72.60
2018-06-05T08:37:05.753Z,68.40
2018-06-05T08:42:01.253Z,71.50
2018-06-05T08:44:29.013Z,70.30
2018-06-05T08:46:56.830Z,68.90
2018-06-05T08:49:24.552Z,66.60
2018-06-05T08:51:52.303Z,70.60
2018-06-05T08:54:20.152Z,70.70
2018-06-05T08:56:47.894Z,68.60
2018-06-05T08:59:15.662Z,68.90
2018-06-05T09:01:43.436Z,68.00
2018-06-05T09:04:11.241Z,68.70
2018-06-05T09:06:39.022Z,70.80
2018-06-05T09:09:07.857Z,68.50
2018-06-05T09:11:35.678Z,67.40
2018-06-05T09:16:31.176Z,67.20
2018-06-05T09:18:58.988Z,67.90
2018-06-05T09:21:26.806Z,65.50
2018-06-05T09:23:54.618Z,65.00
2018-06-05T09:28:50.070Z,66.20
2018-06-05T09:31:17.877Z,65.80
2018-06-05T09:33:45.666Z,64.50
2018-06-05T09:36:13.536Z,63.70
2018-06-05T09:41:08.994Z,65.60
2018-06-05T09:43:36.858Z,66.00
2018-06-05T09:46:04.689Z,65.30
2018-06-05T09:51:00.362Z,60.90
2018-06-05T09:53:28.206Z,59.10
2018-06-05T09:55:55.981Z,60.30
2018-06-05T09:58:23.913Z,63.00
2018-06-05T10:00:52.716Z,62.40
2018-06-05T10:03:21.108Z,60.00
2018-06-05T10:05:48.934Z,56.80
2018-06-05T10:08:16.751Z,54.80
2018-06-05T10:10:44.566Z,54.40
2018-06-05T10:13:12.432Z,54.90
2018-06-05T10:18:08.036Z,56.60
2018-06-05T10:20:35.861Z,55.00
2018-06-05T10:25:31.346Z,53.10
2018-06-05T10:27:59.270Z,52.60
2018-06-05T10:30:27.090Z,51.00
2018-06-05T10:35:22.594Z,50.10
2018-06-05T10:37:50.373Z,51.20
2018-06-05T10:40:18.153Z,55.00
2018-06-05T10:42:45.978Z,50.00
2018-06-05T10:45:13.776Z,46.90
2018-06-05T10:47:41.626Z,45.30
2018-06-05T10:50:09.494Z,42.30
2018-06-05T10:52:37.309Z,41.00
2018-06-05T10:55:05.084Z,39.20
2018-06-05T11:00:00.499Z,43.10
2018-06-05T11:04:55.984Z,46.20
2018-06-05T11:07:23.771Z,43.90
2018-06-05T11:09:51.533Z,42.10
2018-06-05T11:12:19.429Z,42.20
2018-06-05T11:14:47.192Z,41.70
2018-06-05T11:19:42.645Z,39.00
2018-06-05T11:22:10.462Z,39.90
2018-06-05T11:27:05.918Z,35.70
2018-06-05T11:29:33.685Z,37.30
2018-06-05T11:32:01.489Z,38.90
2018-06-05T11:34:29.295Z,37.30
2018-06-05T11:36:57.124Z,41.30
2018-06-05T11:39:24.852Z,38.80
2018-06-05T11:41:52.689Z,35.50
2018-06-05T11:44:20.522Z,32.30
2018-06-05T11:46:48.328Z,29.50
2018-06-05T11:49:16.164Z,29.30
2018-06-05T11:51:43.906Z,28.30
2018-06-05T11:54:11.773Z,29.10
2018-06-05T11:56:39.553Z,30.70
2018-06-05T11:59:07.397Z,30.70
2018-06-05T12:01:35.160Z,30.80
2018-06-05T12:04:03.017Z,34.40
2018-06-05T12:06:30.829Z,35.30
2018-06-05T12:08:58.651Z,34.90
2018-06-05T12:11:26.433Z,34.10
2018-06-05T12:13:54.216Z,31.90
2018-06-05T12:16:22.102Z,31.60
2018-06-05T12:18:49.911Z,30.70
2018-06-05T12:21:17.699Z,31.10
2018-06-05T12:23:45.492Z,30.90
2018-06-05T12:26:14.288Z,32.20
2018-06-05T12:31:09.741Z,32.00
2018-06-05T12:33:38.139Z,32.10
2018-06-05T12:36:06.087Z,30.70
2018-06-05T12:38:33.840Z,31.30
2018-06-05T12:48:30.322Z,35.70
2018-06-05T12:50:58.259Z,34.30
2018-06-05T12:53:26.071Z,35.30
2018-06-05T12:58:21.514Z,36.20
2018-06-05T13:00:49.440Z,36.20
2018-06-05T13:03:17.855Z,36.90
2018-06-05T13:05:45.625Z,38.90
2018-06-05T13:08:13.494Z,40.00
2018-06-05T13:10:41.903Z,40.60
2018-06-05T13:13:09.729Z,39.20
2018-06-05T13:15:37.524Z,39.60
2018-06-05T13:18:05.684Z,40.30
2018-06-05T13:20:33.457Z,40.70
2018-06-05T13:23:01.333Z,41.90
2018-06-05T13:25:29.055Z,40.80
2018-06-05T13:27:56.861Z,38.40
2018-06-05T13:30:25.316Z,39.40
2018-06-05T13:32:53.104Z,39.50
2018-06-05T13:35:20.911Z,39.40
2018-06-05T13:37:48.724Z,40.20
2018-06-05T13:40:16.466Z,39.40
2018-06-05T13:47:39.580Z,40.90
2018-06-05T13:50:07.358Z,42.70
2018-06-05T13:52:35.273Z,41.80
2018-06-05T13:55:03.065Z,42.70
2018-06-05T13:57:30.923Z,42.50
2018-06-05T13:59:59.000Z,41.40
2018-06-05T14:02:26.758Z,40.50
2018-06-05T14:07:22.185Z,43.30
2018-06-05T14:14:45.340Z,44.50
2018-06-05T14:17:13.126Z,43.00
2018-06-05T14:19:40.882Z,44.30
2018-06-05T14:22:08.684Z,43.70
2018-06-05T14:24:36.450Z,44.60
2018-06-05T14:27:04.226Z,44.90
2018-06-05T14:29:32.051Z,43.70
2018-06-05T14:31:59.772Z,42.60
2018-06-05T14:34:27.567Z,42.90
2018-06-05T14:36:55.359Z,43.60
2018-06-05T14:41:50.874Z,45.60
2018-06-05T14:44:18.682Z,46.00
2018-06-05T14:46:46.460Z,45.40
2018-06-05T14:49:14.198Z,45.90
2018-06-05T14:51:42.037Z,43.60
2018-06-05T14:54:09.919Z,44.70
2018-06-05T14:59:05.319Z,45.30
2018-06-05T15:01:33.063Z,45.70
2018-06-05T15:04:00.796Z,46.30
2018-06-05T15:06:28.579Z,47.30
2018-06-05T15:08:56.340Z,47.60
2018-06-05T15:11:24.084Z,46.40
2018-06-05T15:13:51.956Z,47.10
2018-06-05T15:16:19.702Z,48.00
2018-06-05T15:21:15.280Z,47.40
2018-06-05T15:23:43.029Z,49.00
2018-06-05T15:26:10.775Z,50.20
2018-06-05T15:28:38.518Z,50.10
2018-06-05T15:33:34.025Z,50.10
2018-06-05T15:36:02.279Z,50.20
2018-06-05T15:38:30.056Z,51.20
2018-06-05T15:40:57.811Z,50.30
2018-06-05T15:43:25.567Z,50.30
2018-06-05T15:45:53.407Z,50.30
2018-06-05T15:48:21.293Z,49.90
2018-06-05T15:50:49.115Z,50.10
2018-06-05T15:55:44.506Z,49.90
2018-06-05T15:58:12.425Z,51.30
2018-06-05T16:00:40.232Z,53.60
2018-06-05T16:03:08.021Z,52.20
2018-06-05T16:08:03.644Z,52.80
2018-06-05T16:10:31.452Z,52.20
2018-06-05T16:12:59.832Z,53.30
2018-06-05T16:15:28.421Z,53.00
2018-06-05T16:17:56.534Z,55.40
2018-06-05T16:20:25.655Z,54.00
2018-06-05T16:22:53.936Z,52.50
2018-06-05T16:25:21.747Z,54.70
2018-06-05T16:27:49.596Z,54.60
2018-06-05T16:30:17.403Z,54.30
2018-06-05T16:32:45.216Z,55.80
2018-06-05T16:35:13.063Z,54.60
2018-06-05T16:37:41.023Z,56.10
2018-06-05T16:42:37.109Z,55.30
2018-06-05T16:45:05.000Z,55.30
2018-06-05T16:47:32.839Z,56.00
2018-06-05T16:50:00.744Z,54.60
2018-06-05T16:52:28.607Z,55.30
2018-06-05T16:54:56.463Z,56.10
2018-06-05T16:57:24.273Z,56.30
2018-06-05T16:59:52.209Z,55.80
2018-06-05T17:02:19.996Z,58.60
2018-06-05T17:04:47.883Z,60.60
2018-06-05T17:12:11.202Z,59.00
2018-06-05T17:14:39.060Z,59.80
2018-06-05T17:17:06.979Z,59.10
2018-06-05T17:19:34.939Z,59.30
2018-06-05T17:22:02.765Z,58.90
2018-06-05T17:24:30.827Z,59.00
2018-06-05T17:29:26.364Z,59.50
2018-06-05T17:34:22.000Z,60.30
2018-06-05T17:36:49.887Z,60.30
2018-06-05T17:39:17.709Z,59.90
2018-06-05T17:41:45.602Z,60.50
2018-06-05T17:44:13.392Z,60.30
2018-06-05T17:46:41.208Z,60.20
2018-06-05T17:51:36.803Z,61.70
2018-06-05T17:54:04.719Z,61.60
2018-06-05T17:56:32.612Z,60.70
2018-06-05T17:59:00.423Z,60.10
2018-06-05T18:01:28.284Z,62.20
2018-06-05T18:03:56.358Z,61.70
2018-06-05T18:06:24.373Z,62.00
2018-06-05T18:08:52.243Z,61.40
2018-06-05T18:11:20.125Z,62.20
2018-06-05T18:13:47.992Z,62.60
2018-06-05T18:16:15.819Z,62.90
2018-06-05T18:18:44.453Z,63.60
2018-06-05T18:21:12.358Z,63.50
2018-06-05T18:23:40.360Z,63.50
2018-06-05T18:26:08.228Z,63.20
2018-06-05T18:28:36.109Z,63.20
2018-06-05T18:31:07.493Z,63.60
2018-06-05T18:33:37.106Z,63.20
2018-06-05T18:36:05.654Z,63.30
2018-06-05T18:38:33.605Z,65.00
2018-06-05T18:41:01.924Z,65.40
2018-06-05T18:43:30.005Z,65.70
2018-06-05T18:45:57.891Z,65.70
2018-06-05T18:50:54.656Z,67.30
2018-06-05T18:53:22.611Z,67.40
2018-06-05T18:58:18.293Z,70.30
2018-06-05T19:00:46.850Z,68.80
2018-06-05T19:03:14.843Z,69.80
2018-06-05T19:05:42.644Z,70.00
2018-06-05T19:08:10.781Z,71.10
2018-06-05T19:10:38.684Z,71.70
2018-06-05T19:15:42.299Z,72.10
2018-06-05T19:18:10.812Z,72.10
2018-06-05T19:23:06.479Z,72.30
2018-06-05T19:25:34.528Z,72.40
2018-06-05T19:28:02.631Z,72.70
2018-06-05T19:30:30.546Z,71.70
2018-06-05T19:32:58.490Z,73.70
2018-06-05T19:35:26.710Z,74.50
2018-06-05T19:37:54.629Z,75.20
2018-06-05T19:42:50.180Z,76.30
2018-06-05T19:47:45.803Z,78.20
2018-06-05T19:50:14.934Z,78.30
2018-06-05T19:52:42.925Z,79.50
2018-06-05T19:55:10.841Z,79.00
2018-06-05T19:57:38.738Z,80.00
2018-06-05T20:00:06.898Z,80.00
2018-06-05T20:02:34.849Z,80.30
2018-06-05T20:05:02.771Z,79.80
2018-06-05T20:07:30.690Z,82.40
2018-06-05T20:09:58.796Z,82.20
2018-06-05T20:12:26.752Z,81.90
2018-06-05T20:14:54.660Z,81.80
2018-06-05T20:17:22.492Z,82.10
2018-06-05T20:22:18.048Z,83.50
2018-06-05T20:24:45.893Z,84.50
2018-06-05T20:29:41.413Z,85.70
2018-06-05T20:32:09.515Z,87.70
2018-06-05T20:34:37.434Z,87.40
2018-06-05T20:37:05.622Z,87.90
2018-06-05T20:39:33.680Z,89.20
2018-06-05T20:42:01.521Z,90.40
2018-06-05T20:44:29.484Z,90.40
2018-06-05T20:46:57.908Z,90.70
2018-06-05T20:49:25.680Z,90.90
2018-06-05T20:51:54.164Z,91.20
2018-06-05T20:54:22.253Z,91.30
2018-06-05T20:56:54.032Z,90.70
2018-06-05T20:59:21.935Z,91.20
2018-06-05T21:01:49.847Z,91.60
2018-06-05T21:04:17.849Z,91.50
2018-06-05T21:06:45.972Z,91.60
2018-06-05T21:09:14.000Z,92.10
2018-06-05T21:11:42.762Z,93.00
2018-06-05T21:14:10.661Z,93.30
2018-06-05T21:16:38.473Z,93.90
2018-06-05T21:19:06.384Z,93.30
2018-06-05T21:21:34.240Z,93.60
2018-06-05T21:24:02.229Z,94.10
2018-06-05T21:26:30.450Z,94.10
2018-06-05T21:28:58.504Z,93.80
2018-06-05T21:31:26.636Z,94.00
2018-06-05T21:33:54.970Z,94.20
2018-06-05T21:36:22.822Z,94.50
2018-06-05T21:38:50.716Z,95.20
2018-06-05T21:41:18.533Z,95.20
2018-06-05T21:43:46.387Z,95.50
2018-06-05T21:46:14.561Z,95.70
2018-06-05T21:48:42.425Z,95.80
2018-06-05T21:51:10.788Z,96.00
2018-06-05T21:53:39.341Z,95.90
2018-06-05T21:56:07.305Z,95.70
2018-06-05T21:58:35.101Z,95.40
2018-06-05T22:01:03.104Z,95.60
2018-06-05T22:03:31.050Z,96.20
2018-06-05T22:05:59.416Z,96.50
2018-06-05T22:08:27.228Z,96.40
2018-06-05T22:10:55.075Z,96.30
2018-06-05T22:13:22.962Z,97.00
2018-06-05T22:15:51.033Z,96.80
2018-06-05T22:18:18.873Z,97.30
2018-06-05T22:20:46.775Z,97.80
2018-06-05T22:23:14.896Z,97.90
2018-06-05T22:28:10.512Z,98.30
2018-06-05T22:30:38.364Z,98.70
2018-06-05T22:33:06.515Z,98.90
2018-06-05T22:35:34.625Z,99.40
2018-06-05T22:38:02.640Z,99.20
2018-06-05T22:40:30.491Z,99.30
2018-06-05T22:42:58.456Z,99.40
2018-06-05T22:45:27.193Z,99.60
2018-06-05T22:47:55.205Z,99.90
2018-06-05T22:50:23.832Z,99.90
2018-06-05T22:52:51.654Z,99.90
2018-06-05T22:55:19.437Z,99.90
2018-06-05T22:57:47.231Z,99.90
2018-06-05T23:00:21.974Z,99.90
2018-06-05T23:02:49.778Z,99.90
2018-06-05T23:05:17.544Z,99.90
2018-06-05T23:07:45.328Z,99.90
2018-06-05T23:10:13.090Z,99.90
2018-06-05T23:12:40.858Z,99.90
2018-06-05T23:15:09.008Z,99.90
2018-06-05T23:20:04.425Z,99.90
2018-06-05T23:22:32.232Z,99.90
2018-06-05T23:24:59.984Z,99.90
2018-06-05T23:27:27.861Z,99.90
2018-06-05T23:29:55.656Z,99.90
2018-06-05T23:32:23.453Z,99.90
2018-06-05T23:34:51.217Z,99.90
2018-06-05T23:39:46.661Z,99.90
2018-06-05T23:42:14.425Z,99.90
2018-06-05T23:44:42.232Z,99.90
2018-06-05T23:47:10.008Z,99.90
2018-06-05T23:49:37.830Z,99.90
2018-06-05T23:52:05.758Z,99.90
2018-06-05T23:54:33.927Z,99.90
2018-06-05T23:57:01.684Z,99.90
2018-06-05T23:59:29.503Z,99.90
